createdAt,value
2018-06-23T00:00:58.410Z,0.00
2018-06-23T00:01:58.432Z,0.00
2018-06-23T00:02:58.486Z,0.00
2018-06-23T00:03:58.451Z,0.00
2018-06-23T00:04:58.399Z,0.00
2018-06-23T00:05:58.455Z,0.00
2018-06-23T00:06:58.459Z,0.00
2018-06-23T00:07:59.116Z,0.00
2018-06-23T00:08:58.427Z,0.00
2018-06-23T00:09:58.469Z,0.00
2018-06-23T00:10:58.474Z,0.00
2018-06-23T00:11:58.469Z,0.00
2018-06-23T00:12:58.480Z,0.00
2018-06-23T00:13:58.458Z,0.00
2018-06-23T00:14:58.453Z,0.00
2018-06-23T00:15:58.465Z,0.00
2018-06-23T00:16:58.468Z,0.00
2018-06-23T00:17:58.477Z,0.00
2018-06-23T00:18:58.428Z,0.00
2018-06-23T00:19:58.451Z,0.00
2018-06-23T00:20:58.443Z,0.00
2018-06-23T00:21:58.468Z,0.00
2018-06-23T00:22:58.468Z,0.00
2018-06-23T00:23:58.462Z,0.00
2018-06-23T00:24:58.468Z,0.00
2018-06-23T00:25:58.449Z,0.00
2018-06-23T00:26:58.491Z,0.00
2018-06-23T00:27:58.477Z,0.00
2018-06-23T00:28:58.509Z,0.00
2018-06-23T00:29:58.525Z,0.00
2018-06-23T00:30:58.477Z,0.00
2018-06-23T00:31:58.472Z,0.00
2018-06-23T00:32:58.482Z,0.00
2018-06-23T00:33:58.540Z,0.00
2018-06-23T00:34:58.457Z,0.00
2018-06-23T00:35:58.456Z,0.00
2018-06-23T00:36:58.485Z,0.00
2018-06-23T00:37:58.485Z,0.00
2018-06-23T00:38:58.460Z,0.00
2018-06-23T00:39:58.469Z,0.00
2018-06-23T00:40:58.453Z,0.00
2018-06-23T00:41:58.465Z,0.00
2018-06-23T00:42:58.449Z,0.00
2018-06-23T00:43:58.479Z,0.00
2018-06-23T00:44:58.445Z,0.00
2018-06-23T00:45:58.540Z,0.00
2018-06-23T00:46:58.533Z,0.00
2018-06-23T00:47:58.572Z,0.00
2018-06-23T00:48:58.502Z,0.00
2018-06-23T00:49:58.524Z,0.00
2018-06-23T00:50:58.476Z,0.00
2018-06-23T00:51:58.481Z,0.00
2018-06-23T00:52:58.469Z,0.00
2018-06-23T00:53:58.470Z,0.00
2018-06-23T00:54:58.502Z,0.00
2018-06-23T00:55:58.496Z,0.00
2018-06-23T00:56:58.475Z,0.00
2018-06-23T00:57:58.503Z,0.00
2018-06-23T00:58:58.492Z,0.00
2018-06-23T00:59:58.512Z,0.00
2018-06-23T01:00:58.523Z,0.00
2018-06-23T01:01:58.507Z,0.00
2018-06-23T01:02:58.465Z,0.00
2018-06-23T01:03:58.507Z,0.00
2018-06-23T01:04:58.513Z,0.00
2018-06-23T01:05:58.497Z,0.00
2018-06-23T01:06:58.492Z,0.00
2018-06-23T01:07:58.513Z,0.00
2018-06-23T01:08:58.482Z,0.00
2018-06-23T01:09:58.471Z,0.00
2018-06-23T01:10:58.478Z,0.00
2018-06-23T01:11:59.129Z,0.00
2018-06-23T01:12:58.533Z,0.00
2018-06-23T01:13:58.521Z,0.00
2018-06-23T01:14:58.497Z,0.00
2018-06-23T01:15:58.493Z,0.00
2018-06-23T01:16:58.523Z,0.00
2018-06-23T01:17:59.131Z,0.00
2018-06-23T01:18:58.485Z,0.00
2018-06-23T01:19:58.549Z,0.00
2018-06-23T01:20:58.491Z,0.00
2018-06-23T01:21:58.551Z,0.00
2018-06-23T01:22:58.531Z,0.00
2018-06-23T01:23:58.524Z,0.00
2018-06-23T01:24:58.630Z,0.00
2018-06-23T01:25:58.508Z,0.00
2018-06-23T01:26:58.562Z,0.00
2018-06-23T01:27:58.499Z,0.00
2018-06-23T01:28:58.550Z,0.00
2018-06-23T01:29:58.535Z,0.00
2018-06-23T01:30:58.551Z,0.00
2018-06-23T01:31:58.510Z,0.00
2018-06-23T01:32:58.541Z,0.00
2018-06-23T01:33:58.506Z,0.00
2018-06-23T01:34:58.521Z,0.00
2018-06-23T01:35:58.528Z,0.00
2018-06-23T01:36:58.507Z,0.00
2018-06-23T01:37:58.533Z,0.00
2018-06-23T01:38:58.502Z,0.00
2018-06-23T01:39:58.508Z,0.00
2018-06-23T01:40:58.547Z,0.00
2018-06-23T01:41:58.532Z,0.00
2018-06-23T01:42:58.545Z,0.00
2018-06-23T01:43:58.545Z,0.00
2018-06-23T01:44:58.613Z,0.00
2018-06-23T01:45:58.521Z,0.00
2018-06-23T01:46:58.556Z,0.00
2018-06-23T01:47:58.540Z,0.00
2018-06-23T01:48:58.675Z,0.00
2018-06-23T01:49:58.601Z,0.00
2018-06-23T01:50:58.597Z,0.00
2018-06-23T01:51:58.573Z,0.00
2018-06-23T01:52:58.526Z,0.00
2018-06-23T01:53:58.560Z,0.00
2018-06-23T01:54:58.541Z,0.00
2018-06-23T01:55:58.545Z,0.00
2018-06-23T01:56:58.580Z,0.00
2018-06-23T01:57:58.554Z,0.00
2018-06-23T01:58:58.593Z,0.00
2018-06-23T01:59:58.537Z,0.00
2018-06-23T02:00:58.580Z,0.00
2018-06-23T02:01:58.575Z,0.00
2018-06-23T02:02:58.598Z,0.00
2018-06-23T02:03:58.589Z,0.00
2018-06-23T02:04:58.560Z,0.00
2018-06-23T02:05:58.576Z,0.00
2018-06-23T02:06:58.563Z,0.00
2018-06-23T02:07:58.623Z,0.00
2018-06-23T02:08:58.637Z,0.00
2018-06-23T02:10:00.123Z,0.00
2018-06-23T02:10:58.719Z,0.00
2018-06-23T02:11:58.674Z,0.00
2018-06-23T02:12:58.757Z,0.00
2018-06-23T02:13:58.697Z,0.00
2018-06-23T02:14:58.766Z,0.00
2018-06-23T02:15:59.581Z,0.00
2018-06-23T02:16:58.559Z,0.00
2018-06-23T02:17:59.689Z,0.00
2018-06-23T02:18:58.610Z,0.00
2018-06-23T02:19:58.925Z,0.00
2018-06-23T02:20:58.734Z,0.00
2018-06-23T02:21:59.453Z,0.00
2018-06-23T02:22:58.628Z,0.00
2018-06-23T02:23:58.623Z,0.00
2018-06-23T02:24:58.890Z,0.00
2018-06-23T02:25:58.751Z,0.00
2018-06-23T02:26:58.636Z,0.00
2018-06-23T02:27:58.584Z,0.00
2018-06-23T02:28:58.645Z,0.00
2018-06-23T02:29:58.574Z,0.00
2018-06-23T02:30:58.643Z,0.00
2018-06-23T02:31:58.607Z,0.00
2018-06-23T02:32:58.614Z,0.00
2018-06-23T02:33:58.578Z,4.00
2018-06-23T02:34:58.615Z,4.00
2018-06-23T02:35:58.612Z,4.00
2018-06-23T02:36:58.659Z,4.00
2018-06-23T02:37:58.589Z,0.00
2018-06-23T02:38:58.676Z,0.00
2018-06-23T02:39:58.607Z,4.00
2018-06-23T02:40:58.625Z,4.00
2018-06-23T02:41:58.590Z,8.00
2018-06-23T02:42:58.632Z,4.00
2018-06-23T02:43:58.627Z,4.00
2018-06-23T02:44:58.598Z,8.00
2018-06-23T02:45:58.602Z,4.00
2018-06-23T02:46:58.595Z,8.00
2018-06-23T02:47:58.607Z,12.00
2018-06-23T02:48:58.621Z,12.00
2018-06-23T02:49:58.628Z,16.00
2018-06-23T02:50:58.627Z,16.00
2018-06-23T02:51:58.596Z,16.00
2018-06-23T02:52:59.169Z,16.00
2018-06-23T02:53:58.603Z,20.00
2018-06-23T02:54:58.647Z,20.00
2018-06-23T02:55:58.652Z,20.00
2018-06-23T02:56:58.674Z,24.00
2018-06-23T02:57:58.636Z,28.00
2018-06-23T02:58:58.607Z,24.00
2018-06-23T02:59:58.613Z,28.00
2018-06-23T03:00:58.625Z,28.00
2018-06-23T03:01:58.649Z,32.00
2018-06-23T03:02:58.609Z,32.00
2018-06-23T03:03:58.638Z,36.00
2018-06-23T03:04:58.629Z,32.00
2018-06-23T03:05:58.657Z,32.00
2018-06-23T03:06:58.615Z,36.00
2018-06-23T03:07:58.648Z,44.00
2018-06-23T03:08:58.628Z,48.00
2018-06-23T03:09:58.627Z,48.00
2018-06-23T03:10:58.666Z,48.00
2018-06-23T03:11:58.648Z,44.00
2018-06-23T03:12:58.638Z,44.00
2018-06-23T03:13:58.667Z,40.00
2018-06-23T03:14:58.667Z,40.00
2018-06-23T03:15:58.663Z,44.00
2018-06-23T03:16:58.669Z,52.00
2018-06-23T03:17:58.656Z,76.00
2018-06-23T03:18:58.649Z,112.00
2018-06-23T03:19:58.655Z,128.00
2018-06-23T03:20:58.666Z,152.00
2018-06-23T03:21:58.640Z,172.00
2018-06-23T03:22:58.684Z,184.00
2018-06-23T03:23:58.646Z,188.00
2018-06-23T03:24:58.651Z,188.00
2018-06-23T03:25:58.741Z,188.00
2018-06-23T03:26:58.655Z,204.00
2018-06-23T03:27:58.665Z,200.00
2018-06-23T03:28:58.662Z,188.00
2018-06-23T03:29:58.704Z,196.00
2018-06-23T03:30:58.713Z,208.00
2018-06-23T03:31:58.675Z,224.00
2018-06-23T03:32:58.669Z,252.00
2018-06-23T03:33:58.645Z,248.00
2018-06-23T03:34:58.701Z,236.00
2018-06-23T03:35:58.705Z,200.00
2018-06-23T03:36:58.684Z,192.00
2018-06-23T03:37:58.698Z,188.00
2018-06-23T03:38:58.659Z,176.00
2018-06-23T03:39:58.725Z,188.00
2018-06-23T03:40:58.714Z,200.00
2018-06-23T03:41:58.665Z,228.00
2018-06-23T03:42:58.686Z,228.00
2018-06-23T03:43:58.671Z,240.00
2018-06-23T03:44:58.713Z,236.00
2018-06-23T03:45:58.710Z,240.00
2018-06-23T03:46:58.704Z,228.00
2018-06-23T03:47:58.662Z,204.00
2018-06-23T03:48:58.668Z,184.00
2018-06-23T03:49:58.755Z,200.00
2018-06-23T03:50:58.710Z,204.00
2018-06-23T03:51:58.715Z,236.00
2018-06-23T03:52:58.675Z,248.00
2018-06-23T03:53:58.678Z,252.00
2018-06-23T03:54:58.699Z,244.00
2018-06-23T03:55:58.683Z,224.00
2018-06-23T03:56:58.676Z,252.00
2018-06-23T03:57:58.685Z,260.00
2018-06-23T03:58:58.684Z,272.00
2018-06-23T03:59:58.686Z,288.00
2018-06-23T04:00:58.725Z,336.00
2018-06-23T04:01:58.687Z,344.00
2018-06-23T04:02:58.706Z,332.00
2018-06-23T04:03:58.710Z,396.00
2018-06-23T04:04:58.697Z,416.00
2018-06-23T04:05:58.704Z,416.00
2018-06-23T04:06:58.689Z,496.00
2018-06-23T04:07:58.718Z,524.00
2018-06-23T04:08:58.745Z,504.00
2018-06-23T04:09:58.747Z,424.00
2018-06-23T04:10:58.711Z,408.00
2018-06-23T04:11:58.687Z,404.00
2018-06-23T04:12:58.728Z,376.00
2018-06-23T04:13:58.697Z,376.00
2018-06-23T04:14:58.725Z,340.00
2018-06-23T04:15:58.705Z,312.00
2018-06-23T04:16:58.728Z,328.00
2018-06-23T04:17:58.713Z,336.00
2018-06-23T04:18:58.704Z,332.00
2018-06-23T04:19:58.731Z,404.00
2018-06-23T04:20:58.724Z,416.00
2018-06-23T04:21:58.741Z,448.00
2018-06-23T04:22:58.756Z,380.00
2018-06-23T04:23:58.739Z,352.00
2018-06-23T04:24:58.735Z,312.00
2018-06-23T04:25:58.770Z,352.00
2018-06-23T04:26:58.762Z,356.00
2018-06-23T04:27:58.746Z,324.00
2018-06-23T04:28:58.725Z,312.00
2018-06-23T04:29:58.725Z,300.00
2018-06-23T04:30:58.731Z,316.00
2018-06-23T04:31:58.719Z,284.00
2018-06-23T04:32:58.721Z,312.00
2018-06-23T04:33:58.794Z,372.00
2018-06-23T04:34:58.725Z,472.00
2018-06-23T04:35:58.748Z,544.00
2018-06-23T04:36:58.738Z,692.00
2018-06-23T04:37:58.745Z,780.00
2018-06-23T04:38:58.726Z,944.00
2018-06-23T04:39:58.739Z,992.00
2018-06-23T04:40:58.763Z,860.00
2018-06-23T04:41:58.769Z,848.00
2018-06-23T04:42:58.831Z,760.00
2018-06-23T04:43:58.752Z,712.00
2018-06-23T04:44:58.778Z,796.00
2018-06-23T04:45:58.733Z,916.00
2018-06-23T04:46:58.744Z,972.00
2018-06-23T04:47:58.750Z,956.00
2018-06-23T04:48:58.735Z,844.00
2018-06-23T04:49:58.741Z,1024.00
2018-06-23T04:50:58.767Z,992.00
2018-06-23T04:51:58.776Z,1040.00
2018-06-23T04:52:58.735Z,1092.00
2018-06-23T04:53:58.742Z,940.00
2018-06-23T04:54:58.747Z,1032.00
2018-06-23T04:55:58.796Z,1208.00
2018-06-23T04:56:58.789Z,1420.00
2018-06-23T04:57:58.850Z,1892.00
2018-06-23T04:58:58.781Z,2200.00
2018-06-23T04:59:58.777Z,2004.00
2018-06-23T05:00:58.800Z,1364.00
2018-06-23T05:01:58.762Z,1428.00
2018-06-23T05:02:58.765Z,1512.00
2018-06-23T05:03:58.797Z,1692.00
2018-06-23T05:04:58.761Z,1676.00
2018-06-23T05:05:58.763Z,1448.00
2018-06-23T05:06:58.751Z,1248.00
2018-06-23T05:07:58.780Z,1480.00
2018-06-23T05:08:58.841Z,1528.00
2018-06-23T05:09:58.831Z,1308.00
2018-06-23T05:10:58.889Z,1020.00
2018-06-23T05:11:58.820Z,1180.00
2018-06-23T05:12:58.827Z,1128.00
2018-06-23T05:13:58.812Z,1176.00
2018-06-23T05:14:58.824Z,1440.00
2018-06-23T05:15:58.792Z,1268.00
2018-06-23T05:16:58.804Z,996.00
2018-06-23T05:17:58.785Z,824.00
2018-06-23T05:18:58.815Z,1016.00
2018-06-23T05:19:58.834Z,1368.00
2018-06-23T05:20:58.775Z,1060.00
2018-06-23T05:21:58.790Z,884.00
2018-06-23T05:22:58.778Z,792.00
2018-06-23T05:23:58.790Z,712.00
2018-06-23T05:24:58.786Z,812.00
2018-06-23T05:25:58.811Z,896.00
2018-06-23T05:26:58.789Z,900.00
2018-06-23T05:27:58.799Z,772.00
2018-06-23T05:28:58.803Z,896.00
2018-06-23T05:29:58.826Z,1132.00
2018-06-23T05:30:58.818Z,1328.00
2018-06-23T05:31:58.826Z,952.00
2018-06-23T05:32:58.850Z,988.00
2018-06-23T05:33:58.841Z,968.00
2018-06-23T05:34:59.333Z,1348.00
2018-06-23T05:35:59.200Z,1620.00
2018-06-23T05:36:58.850Z,1828.00
2018-06-23T05:37:58.807Z,1380.00
2018-06-23T05:38:59.063Z,1684.00
2018-06-23T05:39:58.808Z,2012.00
2018-06-23T05:40:58.849Z,2104.00
2018-06-23T05:41:58.810Z,2336.00
2018-06-23T05:42:58.816Z,1836.00
2018-06-23T05:43:58.802Z,1708.00
2018-06-23T05:44:58.867Z,1228.00
2018-06-23T05:45:58.821Z,848.00
2018-06-23T05:46:58.855Z,912.00
2018-06-23T05:47:58.939Z,920.00
2018-06-23T05:48:58.854Z,1248.00
2018-06-23T05:49:58.813Z,1872.00
2018-06-23T05:50:58.816Z,1640.00
2018-06-23T05:51:58.848Z,1836.00
2018-06-23T05:52:58.880Z,2764.00
2018-06-23T05:53:58.811Z,4284.00
2018-06-23T05:54:58.814Z,5056.00
2018-06-23T05:55:58.873Z,4848.00
2018-06-23T05:56:58.822Z,5772.00
2018-06-23T05:57:58.885Z,6048.00
2018-06-23T05:58:58.826Z,5172.00
2018-06-23T05:59:58.834Z,5260.00
2018-06-23T06:00:58.833Z,5128.00
2018-06-23T06:01:58.861Z,5440.00
2018-06-23T06:02:58.866Z,5696.00
2018-06-23T06:03:58.882Z,6140.00
2018-06-23T06:04:58.886Z,6452.00
2018-06-23T06:05:58.886Z,6000.00
2018-06-23T06:06:58.869Z,4592.00
2018-06-23T06:07:58.848Z,3160.00
2018-06-23T06:08:58.971Z,4308.00
2018-06-23T06:09:58.908Z,5556.00
2018-06-23T06:10:58.837Z,5488.00
2018-06-23T06:11:58.883Z,6828.00
2018-06-23T06:12:58.908Z,5956.00
2018-06-23T06:13:58.881Z,4688.00
2018-06-23T06:14:58.923Z,4264.00
2018-06-23T06:15:58.876Z,5624.00
2018-06-23T06:16:58.880Z,8280.00
2018-06-23T06:17:58.898Z,5464.00
2018-06-23T06:18:58.995Z,6168.00
2018-06-23T06:19:58.898Z,6252.00
2018-06-23T06:20:58.920Z,9528.00
2018-06-23T06:21:58.867Z,11176.00
2018-06-23T06:22:58.872Z,13392.00
2018-06-23T06:23:58.880Z,10324.00
2018-06-23T06:24:58.924Z,22624.00
2018-06-23T06:25:58.909Z,25216.00
2018-06-23T06:26:58.910Z,11952.00
2018-06-23T06:27:58.912Z,14312.00
2018-06-23T06:28:58.937Z,14240.00
2018-06-23T06:29:58.925Z,18304.00
2018-06-23T06:30:58.882Z,16200.00
2018-06-23T06:31:58.884Z,15572.00
2018-06-23T06:32:58.899Z,14064.00
2018-06-23T06:33:58.907Z,22592.00
2018-06-23T06:34:59.033Z,14736.00
2018-06-23T06:35:58.900Z,10844.00
2018-06-23T06:36:58.917Z,10596.00
2018-06-23T06:37:58.928Z,15712.00
2018-06-23T06:38:58.941Z,11380.00
2018-06-23T06:39:58.946Z,9052.00
2018-06-23T06:40:58.953Z,6856.00
2018-06-23T06:41:58.943Z,4712.00
2018-06-23T06:42:58.960Z,4360.00
2018-06-23T06:43:58.928Z,3796.00
2018-06-23T06:44:58.940Z,5192.00
2018-06-23T06:45:59.745Z,7832.00
2018-06-23T06:46:58.930Z,3844.00
2018-06-23T06:47:58.957Z,3272.00
2018-06-23T06:48:58.976Z,3880.00
2018-06-23T06:49:58.983Z,4260.00
2018-06-23T06:50:58.931Z,5048.00
2018-06-23T06:51:58.960Z,5664.00
2018-06-23T06:52:58.972Z,7372.00
2018-06-23T06:53:58.995Z,9968.00
2018-06-23T06:54:58.963Z,7996.00
2018-06-23T06:55:58.948Z,5812.00
2018-06-23T06:56:58.984Z,4680.00
2018-06-23T06:57:58.938Z,3992.00
2018-06-23T06:58:58.957Z,3492.00
2018-06-23T06:59:58.995Z,4244.00
2018-06-23T07:00:58.988Z,4996.00
2018-06-23T07:01:58.970Z,4164.00
2018-06-23T07:02:58.988Z,4076.00
2018-06-23T07:03:59.005Z,3084.00
2018-06-23T07:04:58.979Z,3304.00
2018-06-23T07:05:59.047Z,3352.00
2018-06-23T07:06:59.010Z,4148.00
2018-06-23T07:07:59.000Z,5192.00
2018-06-23T07:08:59.095Z,6260.00
2018-06-23T07:09:59.014Z,5672.00
2018-06-23T07:10:59.053Z,7732.00
2018-06-23T07:11:59.024Z,14004.00
2018-06-23T07:12:58.981Z,50944.00
2018-06-23T07:13:59.034Z,25088.00
2018-06-23T07:14:58.986Z,18464.00
2018-06-23T07:15:58.982Z,12968.00
2018-06-23T07:16:59.062Z,13796.00
2018-06-23T07:17:59.188Z,9304.00
2018-06-23T07:18:59.091Z,6200.00
2018-06-23T07:19:59.037Z,9168.00
2018-06-23T07:20:59.047Z,14880.00
2018-06-23T07:21:59.048Z,9260.00
2018-06-23T07:22:59.028Z,11180.00
2018-06-23T07:23:59.122Z,15180.00
2018-06-23T07:24:59.060Z,19168.00
2018-06-23T07:25:59.092Z,17504.00
2018-06-23T07:26:59.029Z,11788.00
2018-06-23T07:27:59.044Z,12000.00
2018-06-23T07:28:59.053Z,15560.00
2018-06-23T07:29:59.065Z,13144.00
2018-06-23T07:30:59.074Z,23520.00
2018-06-23T07:31:59.073Z,61568.00
2018-06-23T07:32:59.084Z,42688.00
2018-06-23T07:33:59.068Z,94080.00
2018-06-23T07:34:59.110Z,62112.00
2018-06-23T07:35:59.072Z,74272.00
2018-06-23T07:36:59.072Z,49408.00
2018-06-23T07:37:59.092Z,21728.00
2018-06-23T07:38:59.062Z,14336.00
2018-06-23T07:39:59.063Z,14824.00
2018-06-23T07:40:59.095Z,13256.00
2018-06-23T07:41:59.096Z,12344.00
2018-06-23T07:42:59.144Z,13260.00
2018-06-23T07:43:59.069Z,25248.00
2018-06-23T07:44:59.088Z,16864.00
2018-06-23T07:45:59.096Z,27648.00
2018-06-23T07:46:59.081Z,10012.00
2018-06-23T07:47:59.103Z,10316.00
2018-06-23T07:48:59.128Z,13692.00
2018-06-23T07:49:59.754Z,17184.00
2018-06-23T07:50:59.324Z,10868.00
2018-06-23T07:51:59.106Z,8108.00
2018-06-23T07:52:59.110Z,10704.00
2018-06-23T07:53:59.124Z,18560.00
2018-06-23T07:54:59.137Z,33088.00
2018-06-23T07:55:59.219Z,17632.00
2018-06-23T07:56:59.121Z,40480.00
2018-06-23T07:57:59.248Z,46848.00
2018-06-23T07:58:59.182Z,40608.00
2018-06-23T07:59:59.123Z,41312.00
2018-06-23T08:00:59.191Z,16896.00
2018-06-23T08:01:59.136Z,29216.00
2018-06-23T08:02:59.220Z,10132.00
2018-06-23T08:03:59.146Z,10356.00
2018-06-23T08:04:59.166Z,11364.00
2018-06-23T08:05:59.193Z,59552.00
2018-06-23T08:06:59.191Z,46464.00
2018-06-23T08:07:59.179Z,16864.00
2018-06-23T08:08:59.211Z,15572.00
2018-06-23T08:09:59.208Z,25888.00
2018-06-23T08:10:59.218Z,11112.00
2018-06-23T08:11:59.179Z,63072.00
2018-06-23T08:12:59.347Z,61088.00
2018-06-23T08:13:59.249Z,58688.00
2018-06-23T08:14:59.211Z,59552.00
2018-06-23T08:15:59.250Z,59424.00
2018-06-23T08:16:59.214Z,63008.00
2018-06-23T08:17:59.246Z,39680.00
2018-06-23T08:18:59.238Z,32864.00
2018-06-23T08:19:59.281Z,26112.00
2018-06-23T08:20:59.286Z,14404.00
2018-06-23T08:21:59.292Z,8680.00
2018-06-23T08:22:59.285Z,8168.00
2018-06-23T08:23:59.285Z,8896.00
2018-06-23T08:24:59.293Z,10904.00
2018-06-23T08:25:59.316Z,76352.00
2018-06-23T08:26:59.311Z,10828.00
2018-06-23T08:27:59.321Z,9000.00
2018-06-23T08:28:59.321Z,12472.00
2018-06-23T08:29:59.292Z,45088.00
2018-06-23T08:30:59.386Z,71872.00
2018-06-23T08:31:59.386Z,97344.00
2018-06-23T08:32:59.308Z,31584.00
2018-06-23T08:33:59.775Z,47936.00
2018-06-23T08:34:59.355Z,25280.00
2018-06-23T08:35:59.364Z,41504.00
2018-06-23T08:36:59.392Z,50720.00
2018-06-23T08:37:59.357Z,24768.00
2018-06-23T08:38:59.382Z,34720.00
2018-06-23T08:39:59.492Z,16416.00
2018-06-23T08:40:59.374Z,11148.00
2018-06-23T08:41:59.416Z,11552.00
2018-06-23T08:42:59.433Z,23456.00
2018-06-23T08:43:59.425Z,34912.00
2018-06-23T08:44:59.428Z,13696.00
2018-06-23T08:45:59.658Z,12000.00
2018-06-23T08:46:59.525Z,12440.00
2018-06-23T08:47:59.490Z,14056.00
2018-06-23T08:48:59.466Z,14852.00
2018-06-23T08:49:59.471Z,30624.00
2018-06-23T08:50:59.484Z,31008.00
2018-06-23T08:51:59.457Z,45472.00
2018-06-23T08:52:59.491Z,71776.00
2018-06-23T08:53:59.494Z,64768.00
2018-06-23T08:54:59.577Z,54048.00
2018-06-23T08:55:59.501Z,64256.00
2018-06-23T08:56:59.488Z,57120.00
2018-06-23T08:57:59.530Z,53984.00
2018-06-23T08:58:59.579Z,64480.00
2018-06-23T08:59:59.519Z,67264.00
2018-06-23T09:00:59.506Z,43712.00
2018-06-23T09:01:59.698Z,36736.00
2018-06-23T09:02:59.601Z,17088.00
2018-06-23T09:03:59.603Z,16736.00
2018-06-23T09:04:59.573Z,62816.00
2018-06-23T09:05:59.596Z,61920.00
2018-06-23T09:06:59.639Z,27008.00
2018-06-23T09:07:59.643Z,20960.00
2018-06-23T09:08:59.622Z,59392.00
2018-06-23T09:09:59.819Z,54752.00
2018-06-23T09:10:59.655Z,49472.00
2018-06-23T09:11:59.681Z,33440.00
2018-06-23T09:12:59.695Z,56480.00
2018-06-23T09:13:59.634Z,51104.00
2018-06-23T09:14:59.665Z,46432.00
2018-06-23T09:15:59.739Z,73632.00
2018-06-23T09:16:59.734Z,57856.00
2018-06-23T09:17:59.743Z,11728.00
2018-06-23T09:18:59.749Z,9040.00
2018-06-23T09:20:00.308Z,7732.00
2018-06-23T09:20:59.731Z,7424.00
2018-06-23T09:21:59.725Z,6984.00
2018-06-23T09:22:59.777Z,5576.00
2018-06-23T09:23:59.812Z,5056.00
2018-06-23T09:24:59.809Z,6844.00
2018-06-23T09:25:59.984Z,15144.00
2018-06-23T09:26:59.824Z,38016.00
2018-06-23T09:27:59.850Z,32480.00
2018-06-23T09:28:59.862Z,19808.00
2018-06-23T09:29:59.843Z,22944.00
2018-06-23T09:30:59.857Z,24640.00
2018-06-23T09:31:59.872Z,17632.00
2018-06-23T09:32:59.864Z,23552.00
2018-06-23T09:33:59.879Z,15304.00
2018-06-23T09:34:59.910Z,16672.00
2018-06-23T09:35:59.881Z,25920.00
2018-06-23T09:36:59.916Z,30912.00
2018-06-23T09:37:59.905Z,18048.00
2018-06-23T09:39:00.005Z,10620.00
2018-06-23T09:39:59.932Z,8124.00
2018-06-23T09:40:59.935Z,6256.00
2018-06-23T09:41:59.919Z,5476.00
2018-06-23T09:42:59.962Z,5096.00
2018-06-23T09:43:59.940Z,4044.00
2018-06-23T09:45:00.826Z,3672.00
2018-06-23T09:46:00.044Z,3820.00
2018-06-23T09:46:59.982Z,4724.00
2018-06-23T09:48:00.000Z,5796.00
2018-06-23T09:49:00.003Z,6612.00
2018-06-23T09:50:00.014Z,8344.00
2018-06-23T09:51:00.014Z,9580.00
2018-06-23T09:52:00.028Z,12704.00
2018-06-23T09:53:00.049Z,14800.00
2018-06-23T09:53:59.989Z,17664.00
2018-06-23T09:55:00.019Z,12728.00
2018-06-23T09:56:00.150Z,10516.00
2018-06-23T09:57:00.052Z,11580.00
2018-06-23T09:57:59.997Z,14400.00
2018-06-23T09:59:00.103Z,13716.00
2018-06-23T10:00:00.012Z,16008.00
2018-06-23T10:01:00.070Z,17504.00
2018-06-23T10:02:00.057Z,18016.00
2018-06-23T10:03:00.054Z,17984.00
2018-06-23T10:04:00.050Z,21952.00
2018-06-23T10:05:00.085Z,17312.00
2018-06-23T10:06:00.097Z,12020.00
2018-06-23T10:07:00.905Z,9640.00
2018-06-23T10:08:00.106Z,9544.00
2018-06-23T10:09:00.094Z,8076.00
2018-06-23T10:10:00.840Z,7912.00
2018-06-23T10:11:00.103Z,9376.00
2018-06-23T10:12:03.929Z,13552.00
2018-06-23T10:13:00.131Z,11572.00
2018-06-23T10:14:00.083Z,11260.00
2018-06-23T10:15:00.098Z,11632.00
2018-06-23T10:16:00.138Z,22464.00
2018-06-23T10:17:01.557Z,60256.00
2018-06-23T10:18:00.121Z,18400.00
2018-06-23T10:19:00.207Z,47552.00
2018-06-23T10:20:00.150Z,25152.00
2018-06-23T10:21:00.138Z,21600.00
2018-06-23T10:22:00.237Z,15776.00
2018-06-23T10:23:00.134Z,16736.00
2018-06-23T10:24:00.141Z,11220.00
2018-06-23T10:25:00.160Z,16800.00
2018-06-23T10:26:00.178Z,12000.00
2018-06-23T10:27:00.152Z,8332.00
2018-06-23T10:28:00.162Z,21888.00
2018-06-23T10:29:00.166Z,17984.00
2018-06-23T10:30:00.193Z,17920.00
2018-06-23T10:31:00.191Z,46752.00
2018-06-23T10:32:00.192Z,23936.00
2018-06-23T10:33:00.217Z,24096.00
2018-06-23T10:34:00.212Z,44448.00
2018-06-23T10:35:00.231Z,21728.00
2018-06-23T10:36:00.232Z,16384.00
2018-06-23T10:37:00.246Z,19392.00
2018-06-23T10:38:00.240Z,32000.00
2018-06-23T10:39:00.242Z,18496.00
2018-06-23T10:40:00.279Z,16024.00
2018-06-23T10:41:00.233Z,17728.00
2018-06-23T10:42:00.352Z,16524.00
2018-06-23T10:43:00.296Z,15440.00
2018-06-23T10:44:00.325Z,14676.00
2018-06-23T10:45:00.264Z,16044.00
2018-06-23T10:46:00.248Z,18432.00
2018-06-23T10:47:00.286Z,19520.00
2018-06-23T10:48:00.397Z,22400.00
2018-06-23T10:49:00.344Z,23456.00
2018-06-23T10:50:00.316Z,23104.00
2018-06-23T10:51:00.307Z,22368.00
2018-06-23T10:52:00.281Z,20736.00
2018-06-23T10:53:00.271Z,21216.00
2018-06-23T10:54:00.308Z,18752.00
2018-06-23T10:55:00.323Z,17504.00
2018-06-23T10:56:00.359Z,14056.00
2018-06-23T10:57:00.329Z,12200.00
2018-06-23T10:58:00.327Z,12216.00
2018-06-23T10:59:00.314Z,13536.00
2018-06-23T11:00:00.351Z,12232.00
2018-06-23T11:01:00.377Z,10588.00
2018-06-23T11:02:00.374Z,12016.00
2018-06-23T11:03:00.377Z,11764.00
2018-06-23T11:04:00.379Z,13160.00
2018-06-23T11:05:00.439Z,14640.00
2018-06-23T11:06:00.388Z,15296.00
2018-06-23T11:07:00.353Z,17984.00
2018-06-23T11:08:00.360Z,15504.00
2018-06-23T11:09:00.406Z,15272.00
2018-06-23T11:10:00.406Z,11596.00
2018-06-23T11:11:00.389Z,11148.00
2018-06-23T11:12:00.381Z,13300.00
2018-06-23T11:13:00.389Z,13156.00
2018-06-23T11:14:00.428Z,12952.00
2018-06-23T11:15:00.411Z,10592.00
2018-06-23T11:16:00.394Z,12124.00
2018-06-23T11:17:00.480Z,11520.00
2018-06-23T11:18:00.432Z,10472.00
2018-06-23T11:19:00.471Z,11112.00
2018-06-23T11:20:00.471Z,10256.00
2018-06-23T11:21:00.525Z,10916.00
2018-06-23T11:22:00.480Z,9680.00
2018-06-23T11:23:00.438Z,8536.00
2018-06-23T11:24:00.479Z,7640.00
2018-06-23T11:25:00.448Z,8716.00
2018-06-23T11:26:00.480Z,7580.00
2018-06-23T11:27:00.476Z,6004.00
2018-06-23T11:28:00.515Z,5060.00
2018-06-23T11:29:00.508Z,4396.00
2018-06-23T11:30:00.525Z,4216.00
2018-06-23T11:31:00.619Z,4080.00
2018-06-23T11:32:00.535Z,4772.00
2018-06-23T11:33:00.488Z,6292.00
2018-06-23T11:34:00.554Z,8724.00
2018-06-23T11:35:00.529Z,10504.00
2018-06-23T11:36:00.581Z,10780.00
2018-06-23T11:37:00.537Z,12408.00
2018-06-23T11:38:00.518Z,15456.00
2018-06-23T11:39:00.536Z,17504.00
2018-06-23T11:40:00.522Z,17472.00
2018-06-23T11:41:00.550Z,15188.00
2018-06-23T11:42:00.543Z,12564.00
2018-06-23T11:43:00.537Z,10012.00
2018-06-23T11:44:00.580Z,7816.00
2018-06-23T11:45:00.576Z,6116.00
2018-06-23T11:46:00.581Z,6136.00
2018-06-23T11:47:00.533Z,6812.00
2018-06-23T11:48:00.628Z,7104.00
2018-06-23T11:49:00.584Z,8516.00
2018-06-23T11:50:00.604Z,9172.00
2018-06-23T11:51:00.554Z,10644.00
2018-06-23T11:52:00.601Z,11980.00
2018-06-23T11:53:00.680Z,10688.00
2018-06-23T11:54:00.563Z,10380.00
2018-06-23T11:55:00.623Z,9032.00
2018-06-23T11:56:00.608Z,9024.00
2018-06-23T11:57:00.649Z,9356.00
2018-06-23T11:58:00.779Z,9968.00
2018-06-23T11:59:00.590Z,9232.00
2018-06-23T12:00:00.646Z,10940.00
2018-06-23T12:01:00.610Z,13164.00
2018-06-23T12:02:00.691Z,13344.00
2018-06-23T12:03:00.643Z,14096.00
2018-06-23T12:04:00.688Z,12576.00
2018-06-23T12:05:00.618Z,10868.00
2018-06-23T12:06:00.691Z,10176.00
2018-06-23T12:07:00.819Z,8840.00
2018-06-23T12:08:00.783Z,7892.00
2018-06-23T12:09:00.665Z,9128.00
2018-06-23T12:10:00.623Z,11780.00
2018-06-23T12:11:00.666Z,11188.00
2018-06-23T12:12:00.725Z,10864.00
2018-06-23T12:13:00.720Z,8680.00
2018-06-23T12:14:00.689Z,6652.00
2018-06-23T12:15:00.668Z,8260.00
2018-06-23T12:16:00.679Z,10416.00
2018-06-23T12:17:00.715Z,9852.00
2018-06-23T12:18:00.722Z,9504.00
2018-06-23T12:19:00.719Z,9604.00